Time;durP1;ratioP1;P1;durP2;ratioP2;P2;SDS_P1;SDS_P2;PMS_P1;PMS_P2;Temp;Humidity;BMP_temperature;BMP_pressure;BME280_temperature;BME280_humidity;BME280_pressure;Samples;Min_cycle;Max_cycle;Signal;HPM_P1;HPM_P2
2023/11/08 00:00:49;;;;;;;8.07;5.57;;;;;;;;;;5109050;27;20516;-66
2023/11/08 00:03:15;;;;;;;6.70;6.00;;;;;;;;;;5114099;27;20476;-66
2023/11/08 00:05:42;;;;;;;6.73;6.03;;;;;;;;;;5120940;27;20560;-67
2023/11/08 00:08:10;;;;;;;8.90;6.90;;;;;;;;;;5116663;27;21354;-66
2023/11/08 00:10:36;;;;;;;6.60;6.03;;;;;;;;;;5118230;27;20490;-66
2023/11/08 00:13:03;;;;;;;9.20;6.80;;;;;;;;;;5111434;27;20501;-66
2023/11/08 00:15:29;;;;;;;8.20;5.80;;;;;;;;;;5113681;27;20458;-66
2023/11/08 00:17:56;;;;;;;7.33;5.53;;;;;;;;;;5111526;27;20570;-66
2023/11/08 00:20:22;;;;;;;8.60;5.83;;;;;;;;;;5115507;27;20484;-66
2023/11/08 00:22:48;;;;;;;7.03;6.33;;;;;;;;;;5119147;27;20445;-66
2023/11/08 00:25:17;;;;;;;8.60;5.97;;;;;;;;;;5120949;27;20501;-67
2023/11/08 00:27:43;;;;;;;5.97;5.47;;;;;;;;;;5116169;27;20537;-67
2023/11/08 00:30:10;;;;;;;8.33;7.47;;;;;;;;;;5114997;27;20993;-67
2023/11/08 00:32:36;;;;;;;6.80;4.73;;;;;;;;;;5115282;27;20545;-66
2023/11/08 00:35:03;;;;;;;8.53;6.20;;;;;;;;;;5119276;27;20538;-66
2023/11/08 00:37:30;;;;;;;6.90;5.63;;;;;;;;;;5101253;27;20550;-67
2023/11/08 00:39:57;;;;;;;9.67;5.90;;;;;;;;;;5124656;27;20450;-67
2023/11/08 00:42:25;;;;;;;9.33;5.53;;;;;;;;;;5118783;27;20458;-66
2023/11/08 00:44:51;;;;;;;6.77;6.07;;;;;;;;;;5112760;27;20456;-66
2023/11/08 00:47:18;;;;;;;8.00;5.37;;;;;;;;;;5116911;27;20457;-67
2023/11/08 00:49:44;;;;;;;5.80;5.30;;;;;;;;;;5117705;27;20456;-67
2023/11/08 00:52:11;;;;;;;5.70;5.20;;;;;;;;;;5120192;27;20987;-67
2023/11/08 00:54:37;;;;;;;8.70;6.10;;;;;;;;;;5119328;27;20537;-66
2023/11/08 00:57:04;;;;;;;6.00;5.30;;;;;;;;;;5111164;27;20445;-67
2023/11/08 00:59:32;;;;;;;7.17;5.50;;;;;;;;;;5107555;27;20473;-66
2023/11/08 01:01:58;;;;;;;11.20;7.00;;;;;;;;;;5116879;28;20446;-67
2023/11/08 01:04:25;;;;;;;7.63;5.90;;;;;;;;;;5119615;27;20530;-66
2023/11/08 01:06:51;;;;;;;7.83;7.03;;;;;;;;;;5115604;27;20490;-66
2023/11/08 01:09:20;;;;;;;10.60;6.80;;;;;;;;;;5109932;27;20482;-65
2023/11/08 01:11:47;;;;;;;5.80;5.13;;;;;;;;;;5120210;27;21021;-66
2023/11/08 01:14:14;;;;;;;6.37;5.73;;;;;;;;;;5122278;27;20465;-66
2023/11/08 01:16:42;;;;;;;6.57;5.97;;;;;;;;;;5114887;27;20459;-67
2023/11/08 01:19:08;;;;;;;6.30;5.53;;;;;;;;;;5111189;28;20950;-67
2023/11/08 01:21:34;;;;;;;8.03;5.27;;;;;;;;;;5110877;27;20522;-67
2023/11/08 01:24:01;;;;;;;6.83;5.90;;;;;;;;;;5117099;27;20493;-67
2023/11/08 01:26:27;;;;;;;8.23;6.20;;;;;;;;;;5108776;27;20529;-67
2023/11/08 01:28:54;;;;;;;7.13;5.53;;;;;;;;;;5120394;27;21002;-66
2023/11/08 01:31:20;;;;;;;8.17;5.37;;;;;;;;;;5118139;27;20521;-66
2023/11/08 01:33:48;;;;;;;7.50;5.90;;;;;;;;;;5116512;28;20501;-67
2023/11/08 01:36:15;;;;;;;6.70;5.97;;;;;;;;;;5120182;27;20455;-64
2023/11/08 01:38:42;;;;;;;6.90;6.23;;;;;;;;;;5118846;28;20572;-65
2023/11/08 01:41:08;;;;;;;10.93;6.80;;;;;;;;;;5115531;27;21298;-66
2023/11/08 01:43:36;;;;;;;6.70;6.10;;;;;;;;;;5122452;27;20484;-65
2023/11/08 01:46:07;;;;;;;10.40;5.90;;;;;;;;;;5107271;28;20823;-66
2023/11/08 01:48:34;;;;;;;7.43;6.60;;;;;;;;;;5106341;27;20471;-66
2023/11/08 01:51:02;;;;;;;9.27;6.73;;;;;;;;;;5116537;28;20896;-67
2023/11/08 01:53:29;;;;;;;8.87;7.40;;;;;;;;;;5112373;28;20498;-65
2023/11/08 01:55:56;;;;;;;7.80;6.13;;;;;;;;;;5121915;28;20603;-66
2023/11/08 01:58:22;;;;;;;8.37;6.57;;;;;;;;;;5113870;28;20461;-66
2023/11/08 02:00:50;;;;;;;8.23;7.37;;;;;;;;;;5118462;28;20448;-66
2023/11/08 02:03:17;;;;;;;13.50;6.23;;;;;;;;;;5114926;28;20586;-66
2023/11/08 02:05:44;;;;;;;7.90;7.10;;;;;;;;;;5110994;28;20583;-65
2023/11/08 02:08:12;;;;;;;10.33;7.20;;;;;;;;;;5113684;28;20453;-66
2023/11/08 02:10:39;;;;;;;8.50;6.20;;;;;;;;;;5119741;28;20450;-66
2023/11/08 02:13:05;;;;;;;7.77;6.70;;;;;;;;;;5109049;28;20546;-66
2023/11/08 02:15:38;;;;;;;8.67;6.73;;;;;;;;;;5107807;28;20454;-65
2023/11/08 02:18:05;;;;;;;10.53;6.60;;;;;;;;;;5116822;28;20460;-65
2023/11/08 02:20:31;;;;;;;8.30;6.87;;;;;;;;;;5115525;28;20475;-66
2023/11/08 02:22:58;;;;;;;8.60;6.47;;;;;;;;;;5117936;28;20484;-66
2023/11/08 02:25:26;;;;;;;8.80;6.70;;;;;;;;;;5124434;27;20433;-66
2023/11/08 02:27:52;;;;;;;8.00;7.17;;;;;;;;;;5121448;27;20508;-67
2023/11/08 02:30:18;;;;;;;9.73;7.03;;;;;;;;;;5119571;27;20492;-66
2023/11/08 02:32:45;;;;;;;12.70;6.80;;;;;;;;;;5129110;27;20442;-66
2023/11/08 02:35:11;;;;;;;9.67;6.90;;;;;;;;;;5120532;27;20475;-66
2023/11/08 02:37:38;;;;;;;11.53;7.00;;;;;;;;;;5104956;28;20949;-67
2023/11/08 02:40:05;;;;;;;9.13;7.00;;;;;;;;;;5108970;28;20450;-67
2023/11/08 02:42:32;;;;;;;11.53;6.23;;;;;;;;;;5104887;28;20504;-66
2023/11/08 02:44:59;;;;;;;8.17;7.27;;;;;;;;;;5119112;28;20446;-65
2023/11/08 02:47:25;;;;;;;8.17;7.00;;;;;;;;;;5113462;28;20565;-66
2023/11/08 02:49:52;;;;;;;9.93;6.90;;;;;;;;;;5112766;28;20481;-66
2023/11/08 02:52:19;;;;;;;10.20;7.60;;;;;;;;;;5113323;28;20971;-65
2023/11/08 02:54:48;;;;;;;8.20;7.17;;;;;;;;;;5103227;28;20469;-66
2023/11/08 02:57:16;;;;;;;10.03;7.67;;;;;;;;;;5107102;28;20482;-65
2023/11/08 02:59:43;;;;;;;11.03;7.77;;;;;;;;;;5107928;28;20449;-66
2023/11/08 03:02:10;;;;;;;10.13;7.53;;;;;;;;;;5116166;28;20475;-66
2023/11/08 03:04:38;;;;;;;10.20;7.77;;;;;;;;;;5117520;28;20435;-66
2023/11/08 03:07:04;;;;;;;13.53;7.50;;;;;;;;;;5107986;28;21346;-66
2023/11/08 03:09:31;;;;;;;13.10;7.00;;;;;;;;;;5111627;28;20443;-66
2023/11/08 03:11:58;;;;;;;11.90;7.70;;;;;;;;;;5116118;28;20450;-66
2023/11/08 03:14:25;;;;;;;9.80;7.50;;;;;;;;;;5112360;28;20962;-65
2023/11/08 03:16:53;;;;;;;14.70;8.60;;;;;;;;;;5111180;28;20796;-66
2023/11/08 03:19:19;;;;;;;9.43;6.90;;;;;;;;;;5117330;28;20502;-65
2023/11/08 03:21:46;;;;;;;10.60;6.70;;;;;;;;;;5114245;28;20988;-66
2023/11/08 03:24:12;;;;;;;9.03;7.60;;;;;;;;;;5110760;28;20524;-66
2023/11/08 03:26:39;;;;;;;9.00;6.80;;;;;;;;;;5116553;28;20549;-66
2023/11/08 03:29:05;;;;;;;8.03;7.23;;;;;;;;;;5112280;28;20437;-65
2023/11/08 03:31:32;;;;;;;8.00;6.63;;;;;;;;;;5120685;28;20561;-65
2023/11/08 03:34:00;;;;;;;8.57;7.10;;;;;;;;;;5120984;27;20521;-65
2023/11/08 03:36:28;;;;;;;7.73;6.57;;;;;;;;;;5111359;27;20729;-66
2023/11/08 03:38:55;;;;;;;8.93;7.17;;;;;;;;;;5110132;27;20500;-66
2023/11/08 03:41:24;;;;;;;11.20;9.23;;;;;;;;;;5127338;27;20462;-65
2023/11/08 03:43:51;;;;;;;11.83;7.97;;;;;;;;;;5132877;27;20471;-66
2023/11/08 03:46:17;;;;;;;8.40;6.97;;;;;;;;;;5100834;28;20558;-65
2023/11/08 03:48:43;;;;;;;14.00;7.97;;;;;;;;;;5115981;28;20472;-65
2023/11/08 03:51:11;;;;;;;11.67;7.77;;;;;;;;;;5116605;28;20518;-66
2023/11/08 03:53:38;;;;;;;10.17;8.10;;;;;;;;;;5107906;28;20447;-66
2023/11/08 03:56:05;;;;;;;10.50;7.30;;;;;;;;;;5118753;28;20450;-66
2023/11/08 03:58:31;;;;;;;9.40;7.60;;;;;;;;;;5112887;28;20481;-66
2023/11/08 04:00:58;;;;;;;9.03;8.13;;;;;;;;;;5117183;28;20995;-66
2023/11/08 04:03:24;;;;;;;10.40;9.30;;;;;;;;;;5115612;28;20498;-66
2023/11/08 04:05:52;;;;;;;12.60;8.80;;;;;;;;;;5120111;28;20489;-65
2023/11/08 04:08:20;;;;;;;18.63;10.70;;;;;;;;;;5115279;28;20489;-65
2023/11/08 04:10:46;;;;;;;11.97;8.63;;;;;;;;;;5115876;28;20442;-65
2023/11/08 04:13:12;;;;;;;10.50;9.37;;;;;;;;;;5115892;28;20439;-66
2023/11/08 04:15:39;;;;;;;11.70;8.97;;;;;;;;;;5117142;28;20478;-66
2023/11/08 04:18:05;;;;;;;11.27;8.70;;;;;;;;;;5104843;28;20494;-65
2023/11/08 04:20:32;;;;;;;12.40;9.43;;;;;;;;;;5107879;28;20983;-65
2023/11/08 04:22:58;;;;;;;9.80;8.80;;;;;;;;;;5106051;28;20461;-65
2023/11/08 04:25:26;;;;;;;12.93;10.07;;;;;;;;;;5119135;28;20462;-66
2023/11/08 04:27:52;;;;;;;13.43;9.80;;;;;;;;;;5116646;28;20523;-65
2023/11/08 04:30:19;;;;;;;12.43;9.50;;;;;;;;;;5112682;28;20454;-65
2023/11/08 04:32:45;;;;;;;12.20;9.70;;;;;;;;;;5118976;28;20465;-65
2023/11/08 04:35:11;;;;;;;12.43;9.37;;;;;;;;;;5106949;28;20436;-65
2023/11/08 04:37:39;;;;;;;10.43;9.27;;;;;;;;;;5118231;28;21116;-66
2023/11/08 04:40:06;;;;;;;12.40;9.57;;;;;;;;;;5118818;28;20446;-66
2023/11/08 04:42:34;;;;;;;16.33;9.90;;;;;;;;;;5117985;28;20481;-66
2023/11/08 04:45:00;;;;;;;14.30;9.20;;;;;;;;;;5120748;27;20489;-67
2023/11/08 04:47:27;;;;;;;13.30;9.10;;;;;;;;;;5120653;27;20524;-67
2023/11/08 04:49:54;;;;;;;11.80;10.30;;;;;;;;;;5112032;28;20438;-67
2023/11/08 04:52:21;;;;;;;14.07;9.70;;;;;;;;;;5122749;27;20461;-67
2023/11/08 04:54:48;;;;;;;13.07;10.27;;;;;;;;;;5119679;27;20482;-67
2023/11/08 04:57:17;;;;;;;13.53;9.43;;;;;;;;;;5107596;28;20507;-66
2023/11/08 04:59:45;;;;;;;15.57;10.87;;;;;;;;;;5113731;27;20516;-66
2023/11/08 05:02:12;;;;;;;13.07;10.20;;;;;;;;;;5122489;27;20450;-67
2023/11/08 05:04:39;;;;;;;14.40;10.13;;;;;;;;;;5107293;28;20465;-67
2023/11/08 05:07:06;;;;;;;14.53;9.73;;;;;;;;;;5106130;28;20813;-67
2023/11/08 05:09:33;;;;;;;13.60;10.90;;;;;;;;;;5115452;28;20518;-67
2023/11/08 05:12:00;;;;;;;13.47;9.47;;;;;;;;;;5114639;28;20593;-67
2023/11/08 05:14:27;;;;;;;12.90;10.10;;;;;;;;;;5119039;27;20473;-67
2023/11/08 05:16:55;;;;;;;14.17;9.90;;;;;;;;;;5112644;27;20530;-67
2023/11/08 05:19:21;;;;;;;13.10;9.40;;;;;;;;;;5114439;28;21005;-67
2023/11/08 05:21:48;;;;;;;12.60;10.47;;;;;;;;;;5116387;28;20518;-67
2023/11/08 05:24:14;;;;;;;10.43;9.33;;;;;;;;;;5103696;28;20533;-67
2023/11/08 05:26:41;;;;;;;11.57;9.30;;;;;;;;;;5101605;28;20478;-66
2023/11/08 05:29:07;;;;;;;12.00;10.63;;;;;;;;;;5106783;28;20446;-66
2023/11/08 05:31:34;;;;;;;14.00;10.30;;;;;;;;;;5107379;28;21253;-66
2023/11/08 05:34:02;;;;;;;15.60;10.50;;;;;;;;;;5115239;27;20441;-66
2023/11/08 05:36:29;;;;;;;11.07;9.77;;;;;;;;;;5117801;28;20449;-66
2023/11/08 05:38:56;;;;;;;13.87;9.20;;;;;;;;;;5113894;27;20637;-66
2023/11/08 05:41:22;;;;;;;17.03;10.40;;;;;;;;;;5115880;28;20497;-66
2023/11/08 05:43:49;;;;;;;14.43;10.63;;;;;;;;;;5109205;28;20503;-66
2023/11/08 05:46:16;;;;;;;11.20;8.30;;;;;;;;;;5115576;28;20477;-66
2023/11/08 05:48:42;;;;;;;11.33;9.67;;;;;;;;;;5109101;28;20876;-66
2023/11/08 05:51:10;;;;;;;13.27;9.83;;;;;;;;;;5108283;28;20439;-66
2023/11/08 05:53:37;;;;;;;10.90;9.70;;;;;;;;;;5109043;28;20480;-66
2023/11/08 05:56:04;;;;;;;12.13;9.60;;;;;;;;;;5113272;28;20438;-66
2023/11/08 05:58:30;;;;;;;12.70;10.37;;;;;;;;;;5116854;28;20545;-65
2023/11/08 06:00:57;;;;;;;14.57;9.50;;;;;;;;;;5118497;27;20456;-66
2023/11/08 06:03:24;;;;;;;20.67;10.80;;;;;;;;;;5112040;28;20459;-68
2023/11/08 06:05:51;;;;;;;23.77;11.93;;;;;;;;;;5118319;27;20944;-66
2023/11/08 06:08:19;;;;;;;14.00;10.30;;;;;;;;;;5112421;28;21065;-70
2023/11/08 06:10:45;;;;;;;12.23;10.47;;;;;;;;;;5115521;28;20471;-70
2023/11/08 06:13:12;;;;;;;15.13;11.07;;;;;;;;;;5121833;28;20499;-67
2023/11/08 06:15:38;;;;;;;16.00;10.77;;;;;;;;;;5115046;27;20453;-66
2023/11/08 06:18:05;;;;;;;13.63;11.30;;;;;;;;;;5112981;28;20442;-67
2023/11/08 06:20:32;;;;;;;13.63;9.80;;;;;;;;;;5118700;27;20477;-66
2023/11/08 06:22:59;;;;;;;14.40;9.23;;;;;;;;;;5120295;27;21605;-66
2023/11/08 06:25:27;;;;;;;15.10;10.50;;;;;;;;;;5111536;27;20461;-66
2023/11/08 06:27:54;;;;;;;15.40;11.57;;;;;;;;;;5120129;28;20482;-67
2023/11/08 06:30:20;;;;;;;17.13;12.33;;;;;;;;;;5117531;28;20496;-67
2023/11/08 06:32:46;;;;;;;17.47;10.43;;;;;;;;;;5120235;28;20458;-66
2023/11/08 06:35:13;;;;;;;16.10;12.20;;;;;;;;;;5105728;27;20822;-67
2023/11/08 06:37:39;;;;;;;14.67;11.70;;;;;;;;;;5108470;27;20476;-67
2023/11/08 06:40:07;;;;;;;19.40;11.07;;;;;;;;;;5110649;28;20446;-67
2023/11/08 06:42:35;;;;;;;15.90;11.63;;;;;;;;;;5127048;27;20456;-67
2023/11/08 06:45:03;;;;;;;17.63;11.80;;;;;;;;;;5118101;27;20545;-66
2023/11/08 06:47:30;;;;;;;17.53;12.30;;;;;;;;;;5119803;28;20485;-68
2023/11/08 06:49:56;;;;;;;14.97;10.93;;;;;;;;;;5118898;28;20438;-68
2023/11/08 06:52:25;;;;;;;11.57;9.90;;;;;;;;;;5118245;28;20480;-67
2023/11/08 06:54:51;;;;;;;15.17;10.00;;;;;;;;;;5108506;27;20447;-67
2023/11/08 07:00:22;;;;;;;14.17;10.20;;;;;;;;;;5109654;28;20779;-66
2023/11/08 07:02:49;;;;;;;14.80;10.20;;;;;;;;;;5109956;28;20811;-67
2023/11/08 07:05:15;;;;;;;12.57;9.27;;;;;;;;;;5111232;28;21041;-70
2023/11/08 07:07:42;;;;;;;15.30;9.77;;;;;;;;;;5114028;28;20879;-68
2023/11/08 07:10:11;;;;;;;13.80;9.90;;;;;;;;;;5101622;28;20481;-68
2023/11/08 07:12:37;;;;;;;10.60;8.80;;;;;;;;;;5108626;28;20455;-67
2023/11/08 07:15:04;;;;;;;14.90;11.13;;;;;;;;;;5120195;28;20445;-67
2023/11/08 07:17:32;;;;;;;13.77;9.07;;;;;;;;;;5115136;28;20454;-67
2023/11/08 07:19:59;;;;;;;13.07;8.77;;;;;;;;;;5107645;28;20446;-67
2023/11/08 07:22:26;;;;;;;13.43;9.83;;;;;;;;;;5119477;28;20450;-67
2023/11/08 07:24:52;;;;;;;12.57;9.07;;;;;;;;;;5112565;28;20470;-67
2023/11/08 07:27:19;;;;;;;9.47;8.00;;;;;;;;;;5119012;28;20520;-67
2023/11/08 07:29:45;;;;;;;10.73;9.30;;;;;;;;;;5115962;28;20466;-67
2023/11/08 07:32:13;;;;;;;10.70;8.97;;;;;;;;;;5110929;28;20502;-66
2023/11/08 07:34:41;;;;;;;10.93;7.70;;;;;;;;;;5108338;28;20445;-66
2023/11/08 07:37:07;;;;;;;13.77;8.33;;;;;;;;;;5119447;28;20463;-66
2023/11/08 07:39:34;;;;;;;17.40;7.93;;;;;;;;;;5111661;28;20442;-68
2023/11/08 07:42:00;;;;;;;9.27;8.37;;;;;;;;;;5105636;28;20500;-68
2023/11/08 07:44:29;;;;;;;10.93;8.97;;;;;;;;;;5104585;28;20492;-68
2023/11/08 07:46:55;;;;;;;9.17;8.03;;;;;;;;;;5116361;28;20458;-68
2023/11/08 07:49:22;;;;;;;12.00;8.70;;;;;;;;;;5120139;28;20474;-67
2023/11/08 07:51:50;;;;;;;13.33;9.20;;;;;;;;;;5116738;27;20449;-69
2023/11/08 07:54:17;;;;;;;10.50;8.00;;;;;;;;;;5111591;28;20827;-67
2023/11/08 07:56:43;;;;;;;11.57;8.73;;;;;;;;;;5107856;28;20470;-68
2023/11/08 07:59:10;;;;;;;9.20;7.57;;;;;;;;;;5109143;28;20970;-69
2023/11/08 08:01:36;;;;;;;14.33;8.33;;;;;;;;;;5118937;28;20482;-74
2023/11/08 08:04:05;;;;;;;10.47;7.67;;;;;;;;;;5115024;28;20961;-73
2023/11/08 08:06:31;;;;;;;10.33;7.80;;;;;;;;;;5114470;28;20545;-72
2023/11/08 08:08:59;;;;;;;8.57;6.10;;;;;;;;;;5113699;28;20525;-72
2023/11/08 08:11:26;;;;;;;9.60;7.73;;;;;;;;;;5117880;28;20485;-74
2023/11/08 08:13:52;;;;;;;12.03;8.13;;;;;;;;;;5112338;27;20458;-73
2023/11/08 08:16:19;;;;;;;9.40;7.30;;;;;;;;;;5117476;28;20446;-75
2023/11/08 08:18:46;;;;;;;13.10;7.50;;;;;;;;;;5116137;28;20442;-68
2023/11/08 08:21:13;;;;;;;9.17;7.17;;;;;;;;;;5107724;28;20463;-72
2023/11/08 08:23:39;;;;;;;12.60;7.10;;;;;;;;;;5112911;28;20466;-70
2023/11/08 08:26:07;;;;;;;8.40;6.90;;;;;;;;;;5119144;27;20573;-71
2023/11/08 08:28:35;;;;;;;9.53;7.50;;;;;;;;;;5120761;28;20474;-72
2023/11/08 08:31:01;;;;;;;8.60;7.30;;;;;;;;;;5103848;27;20578;-71
2023/11/08 08:33:27;;;;;;;10.30;8.10;;;;;;;;;;5097693;28;20460;-72
2023/11/08 08:35:56;;;;;;;8.43;6.37;;;;;;;;;;5088653;28;20812;-71
2023/11/08 08:38:23;;;;;;;8.43;6.63;;;;;;;;;;5093857;28;20451;-70
2023/11/08 08:40:50;;;;;;;11.30;7.23;;;;;;;;;;5093454;28;20431;-69
2023/11/08 08:43:20;;;;;;;9.60;7.10;;;;;;;;;;5098422;28;20462;-69
2023/11/08 08:45:47;;;;;;;8.03;7.23;;;;;;;;;;5098125;28;20952;-72
2023/11/08 08:48:13;;;;;;;8.33;7.27;;;;;;;;;;5092556;28;20491;-70
2023/11/08 08:50:39;;;;;;;13.07;8.23;;;;;;;;;;5089507;28;20466;-68
2023/11/08 08:53:06;;;;;;;6.07;5.57;;;;;;;;;;5092157;28;20447;-67
2023/11/08 08:55:32;;;;;;;6.27;5.70;;;;;;;;;;5095656;28;20516;-71
2023/11/08 08:57:59;;;;;;;6.17;5.53;;;;;;;;;;5092956;28;20483;-69
2023/11/08 09:00:27;;;;;;;8.37;6.20;;;;;;;;;;5093422;28;20444;-70
2023/11/08 09:02:54;;;;;;;6.70;5.60;;;;;;;;;;5095416;28;20508;-70
2023/11/08 09:05:21;;;;;;;7.40;5.67;;;;;;;;;;5095316;28;20480;-71
2023/11/08 09:07:48;;;;;;;6.40;4.93;;;;;;;;;;5091758;28;20494;-73
2023/11/08 09:10:14;;;;;;;4.87;4.40;;;;;;;;;;5088129;28;20481;-67
2023/11/08 09:12:41;;;;;;;5.20;4.70;;;;;;;;;;5093031;28;20525;-69
2023/11/08 09:15:10;;;;;;;4.83;4.37;;;;;;;;;;5090170;28;20458;-70
2023/11/08 09:17:39;;;;;;;6.20;4.97;;;;;;;;;;5092701;28;20457;-68
2023/11/08 09:20:08;;;;;;;6.87;4.53;;;;;;;;;;5091905;28;20522;-69
2023/11/08 09:22:34;;;;;;;5.90;3.80;;;;;;;;;;5088505;28;20487;-70
2023/11/08 09:25:03;;;;;;;7.03;4.40;;;;;;;;;;5094776;28;20512;-70
2023/11/08 09:27:30;;;;;;;3.93;3.40;;;;;;;;;;5097822;28;20451;-69
2023/11/08 09:29:57;;;;;;;7.00;3.77;;;;;;;;;;5093547;28;20483;-70
2023/11/08 09:32:25;;;;;;;4.60;4.20;;;;;;;;;;5115807;28;20895;-71
2023/11/08 09:34:53;;;;;;;6.40;3.27;;;;;;;;;;5111642;28;21046;-75
2023/11/08 09:37:20;;;;;;;4.53;3.10;;;;;;;;;;5106678;28;20459;-70
2023/11/08 09:39:49;;;;;;;4.70;3.20;;;;;;;;;;5116832;28;20454;-70
2023/11/08 09:42:17;;;;;;;4.17;3.43;;;;;;;;;;5117117;28;20455;-73
2023/11/08 09:44:46;;;;;;;3.97;3.60;;;;;;;;;;5118760;28;20454;-70
2023/11/08 09:47:12;;;;;;;3.83;3.53;;;;;;;;;;5112959;28;20468;-66
2023/11/08 09:49:39;;;;;;;4.33;3.33;;;;;;;;;;5106281;28;20482;-65
2023/11/08 09:52:07;;;;;;;8.27;5.30;;;;;;;;;;5112230;28;20484;-65
2023/11/08 09:54:34;;;;;;;4.73;4.27;;;;;;;;;;5112784;28;20450;-69
2023/11/08 09:57:01;;;;;;;4.10;3.77;;;;;;;;;;5110773;28;20443;-67
2023/11/08 09:59:30;;;;;;;6.40;3.80;;;;;;;;;;5111184;28;20933;-68
2023/11/08 10:01:57;;;;;;;4.70;4.30;;;;;;;;;;5114640;28;20507;-67
2023/11/08 10:04:24;;;;;;;3.70;3.50;;;;;;;;;;5117990;28;20453;-67
2023/11/08 10:06:51;;;;;;;5.80;3.70;;;;;;;;;;5116640;28;20446;-68
2023/11/08 10:09:24;;;;;;;3.80;3.43;;;;;;;;;;5110867;28;20486;-69
2023/11/08 10:11:50;;;;;;;4.27;3.77;;;;;;;;;;5115273;28;20872;-66
2023/11/08 10:14:30;;;;;;;4.10;3.70;;;;;;;;;;5112227;28;20454;-67
2023/11/08 10:16:57;;;;;;;5.00;3.37;;;;;;;;;;5110102;28;21010;-67
2023/11/08 10:19:23;;;;;;;3.50;3.30;;;;;;;;;;5117945;28;20458;-67
2023/11/08 10:21:50;;;;;;;6.50;3.60;;;;;;;;;;5115672;28;20921;-69
2023/11/08 10:24:17;;;;;;;4.73;3.73;;;;;;;;;;5112792;28;20462;-69
2023/11/08 10:26:46;;;;;;;4.93;3.33;;;;;;;;;;5115881;28;20438;-66
2023/11/08 10:29:12;;;;;;;4.20;3.57;;;;;;;;;;5116697;28;20550;-67
2023/11/08 10:31:39;;;;;;;6.07;3.50;;;;;;;;;;5108674;28;20509;-68
2023/11/08 10:34:06;;;;;;;3.17;2.87;;;;;;;;;;5116150;28;20795;-65
2023/11/08 10:36:32;;;;;;;7.00;3.30;;;;;;;;;;5107141;28;20477;-66
2023/11/08 10:38:58;;;;;;;3.50;3.17;;;;;;;;;;5108570;28;20457;-67
2023/11/08 10:41:25;;;;;;;5.90;3.87;;;;;;;;;;5108703;28;20289;-69
2023/11/08 10:44:07;;;;;;;4.70;3.63;;;;;;;;;;5112746;28;20454;-67
2023/11/08 10:46:33;;;;;;;4.37;3.50;;;;;;;;;;5118245;28;20917;-69
2023/11/08 10:49:00;;;;;;;5.90;3.80;;;;;;;;;;5110569;28;20514;-67
2023/11/08 10:51:27;;;;;;;14.40;3.60;;;;;;;;;;5112450;28;20450;-66
2023/11/08 10:53:56;;;;;;;3.63;3.33;;;;;;;;;;5118780;28;20462;-68
2023/11/08 10:56:23;;;;;;;5.90;3.70;;;;;;;;;;5120426;28;20446;-69
2023/11/08 10:58:51;;;;;;;3.70;3.40;;;;;;;;;;5121356;28;20457;-69
2023/11/08 11:01:20;;;;;;;6.10;4.70;;;;;;;;;;5115979;27;20453;-71
2023/11/08 11:03:48;;;;;;;5.60;3.37;;;;;;;;;;5122358;27;20501;-71
2023/11/08 11:06:15;;;;;;;5.70;3.97;;;;;;;;;;5120776;28;20450;-71
2023/11/08 11:08:43;;;;;;;4.20;3.37;;;;;;;;;;5113088;28;20483;-71
2023/11/08 11:11:10;;;;;;;5.10;3.37;;;;;;;;;;5119199;28;20453;-71
2023/11/08 11:13:39;;;;;;;5.33;3.67;;;;;;;;;;5120221;28;20533;-70
2023/11/08 11:16:11;;;;;;;3.87;3.50;;;;;;;;;;5116774;28;20512;-72
2023/11/08 11:18:42;;;;;;;4.80;3.27;;;;;;;;;;5115874;28;20467;-68
2023/11/08 11:21:14;;;;;;;5.60;3.40;;;;;;;;;;5120327;28;20450;-71
2023/11/08 11:23:41;;;;;;;4.13;3.60;;;;;;;;;;5119146;28;20450;-67
2023/11/08 11:26:10;;;;;;;3.87;3.47;;;;;;;;;;5116800;28;20453;-72
2023/11/08 11:28:52;;;;;;;7.27;3.40;;;;;;;;;;5118699;28;20853;-69
2023/11/08 11:31:32;;;;;;;4.50;3.70;;;;;;;;;;5106428;28;21003;-71
2023/11/08 11:34:01;;;;;;;4.53;3.40;;;;;;;;;;5101606;28;20506;-70
2023/11/08 11:36:27;;;;;;;5.83;3.43;;;;;;;;;;5100252;28;20447;-72
2023/11/08 11:39:10;;;;;;;3.67;3.10;;;;;;;;;;5101039;28;20462;-69
2023/11/08 11:41:37;;;;;;;3.17;2.87;;;;;;;;;;5100485;28;21102;-71
2023/11/08 11:44:05;;;;;;;4.23;3.80;;;;;;;;;;5098226;28;20462;-68
2023/11/08 11:46:34;;;;;;;3.67;3.40;;;;;;;;;;5096466;28;20520;-70
2023/11/08 11:49:13;;;;;;;3.97;3.57;;;;;;;;;;5099153;28;20963;-74
2023/11/08 11:51:40;;;;;;;4.03;3.73;;;;;;;;;;5096997;28;20441;-76
2023/11/08 11:54:07;;;;;;;5.83;5.27;;;;;;;;;;5100758;28;20516;-74
2023/11/08 11:56:34;;;;;;;3.37;3.17;;;;;;;;;;5096889;28;20465;-73
2023/11/08 11:59:00;;;;;;;6.10;3.90;;;;;;;;;;5103100;28;20488;-73
2023/11/08 12:01:27;;;;;;;3.50;3.20;;;;;;;;;;5097706;28;20452;-70
2023/11/08 12:03:54;;;;;;;4.30;3.30;;;;;;;;;;5096849;28;20848;-72
2023/11/08 12:06:22;;;;;;;4.33;3.30;;;;;;;;;;5099222;28;20516;-67
2023/11/08 12:08:48;;;;;;;3.40;3.10;;;;;;;;;;5095627;28;20547;-68
2023/11/08 12:11:16;;;;;;;4.10;3.70;;;;;;;;;;5103613;28;20439;-68
2023/11/08 12:13:49;;;;;;;4.50;3.03;;;;;;;;;;5099826;28;21070;-68
2023/11/08 12:16:16;;;;;;;5.03;3.53;;;;;;;;;;5093721;28;20543;-67
2023/11/08 12:18:44;;;;;;;3.87;3.50;;;;;;;;;;5088221;28;20451;-67
2023/11/08 12:21:10;;;;;;;4.50;3.23;;;;;;;;;;5099863;28;20788;-67
2023/11/08 12:23:38;;;;;;;3.37;3.07;;;;;;;;;;5094982;28;20899;-67
2023/11/08 12:26:05;;;;;;;3.00;2.80;;;;;;;;;;5085025;28;20450;-68
2023/11/08 12:28:31;;;;;;;3.10;2.90;;;;;;;;;;5097607;28;20505;-68
2023/11/08 12:31:04;;;;;;;3.87;3.13;;;;;;;;;;5107307;28;20492;-67
2023/11/08 12:33:31;;;;;;;3.63;2.70;;;;;;;;;;5118215;28;20442;-67
2023/11/08 12:35:58;;;;;;;4.17;3.10;;;;;;;;;;5118442;28;20466;-67
2023/11/08 12:38:25;;;;;;;9.90;3.20;;;;;;;;;;5114898;28;20479;-69
2023/11/08 12:41:02;;;;;;;3.57;2.80;;;;;;;;;;5115263;28;20971;-66
2023/11/08 12:43:28;;;;;;;4.87;2.67;;;;;;;;;;5115939;28;20692;-67
2023/11/08 12:46:00;;;;;;;3.90;3.10;;;;;;;;;;5115629;28;20467;-67
2023/11/08 12:48:28;;;;;;;2.60;2.40;;;;;;;;;;5117106;28;20481;-66
2023/11/08 12:50:55;;;;;;;4.13;2.57;;;;;;;;;;5114225;28;20471;-68
2023/11/08 12:53:21;;;;;;;3.50;2.90;;;;;;;;;;5108321;28;20453;-69
2023/11/08 12:55:48;;;;;;;3.63;3.23;;;;;;;;;;5109862;28;20903;-69
2023/11/08 12:58:23;;;;;;;8.60;3.03;;;;;;;;;;5105248;28;20478;-67
2023/11/08 13:00:49;;;;;;;3.10;2.77;;;;;;;;;;5114512;28;20434;-67
2023/11/08 13:03:20;;;;;;;4.40;3.33;;;;;;;;;;5111298;28;20467;-69
2023/11/08 13:05:46;;;;;;;9.33;3.63;;;;;;;;;;5112650;28;20442;-68
2023/11/08 13:08:13;;;;;;;4.33;3.40;;;;;;;;;;5114632;28;20450;-68
2023/11/08 13:10:39;;;;;;;7.20;3.60;;;;;;;;;;5112874;28;20501;-67
2023/11/08 13:13:06;;;;;;;3.43;3.23;;;;;;;;;;5112006;28;20530;-68
2023/11/08 13:15:33;;;;;;;3.53;3.13;;;;;;;;;;5111923;28;20430;-67
2023/11/08 13:18:00;;;;;;;3.80;3.50;;;;;;;;;;5117606;28;20450;-64
2023/11/08 13:20:27;;;;;;;3.80;3.13;;;;;;;;;;5111288;28;20458;-67
2023/11/08 13:22:53;;;;;;;3.27;2.97;;;;;;;;;;5113865;28;20459;-68
2023/11/08 13:25:23;;;;;;;3.33;3.13;;;;;;;;;;5116159;28;20450;-67
2023/11/08 13:27:50;;;;;;;4.50;3.23;;;;;;;;;;5117486;28;20916;-68
2023/11/08 13:30:17;;;;;;;3.43;3.13;;;;;;;;;;5108756;28;20490;-68
2023/11/08 13:32:46;;;;;;;4.40;3.37;;;;;;;;;;5107641;28;20462;-68
2023/11/08 13:35:12;;;;;;;5.43;3.00;;;;;;;;;;5108403;28;20497;-68
2023/11/08 13:37:39;;;;;;;4.77;3.13;;;;;;;;;;5109267;28;20451;-67
2023/11/08 13:40:06;;;;;;;7.00;3.77;;;;;;;;;;5112817;28;20446;-67
2023/11/08 13:42:33;;;;;;;5.03;3.23;;;;;;;;;;5118429;28;20493;-68
2023/11/08 13:44:59;;;;;;;5.30;3.10;;;;;;;;;;5117757;28;20458;-67
2023/11/08 13:47:26;;;;;;;4.07;3.67;;;;;;;;;;5112630;28;20506;-68
2023/11/08 13:49:54;;;;;;;3.07;2.87;;;;;;;;;;5115148;28;20479;-68
2023/11/08 13:52:20;;;;;;;2.73;2.53;;;;;;;;;;5109621;28;21027;-67
2023/11/08 13:54:47;;;;;;;5.00;3.00;;;;;;;;;;5115223;28;20442;-68
2023/11/08 13:57:13;;;;;;;9.47;3.20;;;;;;;;;;5099454;28;20443;-69
2023/11/08 13:59:42;;;;;;;3.03;2.73;;;;;;;;;;5114528;28;20475;-67
2023/11/08 14:02:08;;;;;;;2.87;2.60;;;;;;;;;;5117034;28;20470;-72
2023/11/08 14:04:35;;;;;;;3.20;2.90;;;;;;;;;;5113161;28;20554;-69
2023/11/08 14:07:03;;;;;;;4.63;3.03;;;;;;;;;;5107516;28;20504;-69
2023/11/08 14:09:30;;;;;;;10.67;3.50;;;;;;;;;;5116324;28;20474;-69
2023/11/08 14:11:56;;;;;;;3.63;3.40;;;;;;;;;;5099526;28;20836;-70
2023/11/08 14:14:23;;;;;;;4.43;3.87;;;;;;;;;;5115010;28;20445;-72
2023/11/08 14:16:49;;;;;;;4.67;4.17;;;;;;;;;;5118114;28;20539;-71
2023/11/08 14:19:16;;;;;;;3.53;3.17;;;;;;;;;;5116307;28;20450;-71
2023/11/08 14:21:42;;;;;;;5.57;3.70;;;;;;;;;;5117843;28;20541;-71
2023/11/08 14:24:10;;;;;;;7.93;3.70;;;;;;;;;;5118302;28;20461;-68
2023/11/08 14:26:37;;;;;;;3.10;2.90;;;;;;;;;;5117106;28;20435;-68
2023/11/08 14:29:03;;;;;;;4.00;3.50;;;;;;;;;;5119145;28;20458;-68
2023/11/08 14:31:30;;;;;;;3.27;3.07;;;;;;;;;;5119371;28;20510;-66
2023/11/08 14:33:58;;;;;;;3.87;3.30;;;;;;;;;;5116523;28;20506;-67
2023/11/08 14:36:24;;;;;;;7.70;3.43;;;;;;;;;;5113678;28;20453;-66
2023/11/08 14:38:52;;;;;;;3.37;3.17;;;;;;;;;;5120700;28;20978;-66